createdAt,value
2022-10-14T12:15:16.956Z,17.63
2022-10-14T12:17:22.232Z,18.43
2022-10-14T12:19:26.770Z,17.83
2022-10-14T12:21:33.501Z,18.37
2022-10-14T12:23:38.847Z,16.90
2022-10-14T12:25:44.927Z,17.80
2022-10-14T12:27:48.027Z,20.23
2022-10-14T12:29:51.757Z,20.17
2022-10-14T12:32:10.554Z,18.97
2022-10-14T12:34:18.879Z,18.33
2022-10-14T12:36:32.214Z,18.13
2022-10-14T12:38:36.322Z,18.27
2022-10-14T12:40:39.320Z,18.40
2022-10-14T12:42:57.830Z,17.10
2022-10-14T12:45:01.974Z,18.20
2022-10-14T12:47:04.985Z,18.20
2022-10-14T12:49:18.617Z,19.20
2022-10-14T12:51:25.931Z,19.77
2022-10-14T12:53:33.249Z,21.43
2022-10-14T12:55:40.701Z,18.40
2022-10-14T12:57:44.015Z,24.23
2022-10-14T12:59:51.488Z,21.50
2022-10-14T13:01:57.136Z,20.93
2022-10-14T13:06:28.529Z,23.67
2022-10-14T13:08:31.474Z,21.43
2022-10-14T13:10:50.668Z,21.43
2022-10-14T13:12:53.421Z,24.10
2022-10-14T13:14:58.212Z,22.30
2022-10-14T13:17:01.208Z,23.77
2022-10-14T13:19:04.550Z,24.83
2022-10-14T13:21:07.999Z,29.03
2022-10-14T13:23:23.724Z,28.70
2022-10-14T13:25:28.060Z,31.17
2022-10-14T13:27:34.715Z,29.27
2022-10-14T13:29:51.112Z,26.03
2022-10-14T13:31:55.966Z,24.03
2022-10-14T13:34:06.994Z,24.33
2022-10-14T13:36:14.604Z,26.70
2022-10-14T13:38:20.668Z,27.07
2022-10-14T13:40:27.234Z,28.23
2022-10-14T13:42:33.144Z,25.07
2022-10-14T13:44:36.058Z,24.63
2022-10-14T13:46:41.609Z,26.40
2022-10-14T13:48:45.870Z,26.43
2022-10-14T13:50:50.845Z,25.60
2022-10-14T13:52:55.643Z,26.53
2022-10-14T14:02:28.104Z,28.13
2022-10-14T14:04:32.401Z,29.57
2022-10-14T14:06:45.362Z,27.50
2022-10-14T14:08:58.856Z,27.70
2022-10-14T14:11:16.064Z,27.20
2022-10-14T14:13:21.443Z,31.60
2022-10-14T14:15:25.513Z,28.30
2022-10-14T14:17:31.111Z,25.87
2022-10-14T14:19:35.426Z,28.87
2022-10-14T14:21:38.519Z,26.37
2022-10-14T14:23:51.318Z,28.20
2022-10-14T14:26:18.015Z,28.60
2022-10-14T14:28:17.287Z,25.90
2022-10-14T14:30:24.422Z,34.57
2022-10-14T14:32:30.501Z,24.33
2022-10-14T14:34:37.389Z,26.93
2022-10-14T14:36:52.029Z,26.17
2022-10-14T14:38:59.327Z,30.40
2022-10-14T14:41:03.349Z,27.57
2022-10-14T14:43:06.028Z,26.07
2022-10-14T14:45:14.155Z,27.47
2022-10-14T14:47:19.274Z,26.00
2022-10-14T14:49:25.599Z,26.00
2022-10-14T14:51:30.910Z,29.57
2022-10-14T14:53:33.687Z,26.83
2022-10-14T14:55:40.789Z,25.23
2022-10-14T14:57:43.854Z,27.77
2022-10-14T14:59:52.063Z,26.63
2022-10-14T15:01:55.036Z,28.00
2022-10-14T15:04:11.992Z,31.87
2022-10-14T15:06:17.360Z,26.47
2022-10-14T15:08:22.435Z,30.00
2022-10-14T15:10:26.816Z,27.10
2022-10-14T15:12:31.233Z,27.43
2022-10-14T15:14:35.650Z,29.63
2022-10-14T15:16:41.478Z,25.53
2022-10-14T15:18:44.202Z,30.80
2022-10-14T15:20:49.322Z,28.30
2022-10-14T15:22:52.739Z,32.97
2022-10-14T15:25:01.206Z,27.87
2022-10-14T15:27:30.553Z,31.97
2022-10-14T15:29:33.815Z,30.67
2022-10-14T15:31:36.973Z,27.37
2022-10-14T15:33:39.689Z,29.67
2022-10-14T15:35:42.473Z,30.90
2022-10-14T15:37:47.014Z,33.40
2022-10-14T15:40:03.300Z,35.40
2022-10-14T15:42:10.024Z,28.43
2022-10-14T15:44:12.793Z,34.93
2022-10-14T15:46:29.882Z,29.50
2022-10-14T15:48:32.597Z,32.43
2022-10-14T15:50:36.194Z,29.20
2022-10-14T15:52:39.041Z,29.47
2022-10-14T15:54:45.849Z,28.60
2022-10-14T15:56:49.268Z,28.80
2022-10-14T15:58:51.995Z,43.63
2022-10-14T16:00:54.730Z,27.37
2022-10-14T16:02:59.317Z,27.00
2022-10-14T16:07:26.090Z,30.33
2022-10-14T16:09:29.366Z,28.47
2022-10-14T16:11:33.331Z,32.73
2022-10-14T16:13:36.031Z,27.77
2022-10-14T16:15:40.952Z,32.00
2022-10-14T16:17:46.429Z,35.30
2022-10-14T16:19:51.566Z,28.10
2022-10-14T16:21:54.214Z,29.23
2022-10-14T16:23:58.672Z,29.00
2022-10-14T16:26:01.932Z,30.77
2022-10-14T16:28:09.193Z,27.33
2022-10-14T16:30:13.247Z,27.47
2022-10-14T16:32:15.941Z,28.27
2022-10-14T16:34:18.985Z,29.60
2022-10-14T16:36:23.198Z,29.00
2022-10-14T16:38:25.856Z,28.00
2022-10-14T16:40:30.931Z,30.67
2022-10-14T16:42:37.244Z,29.23
2022-10-14T16:44:41.164Z,29.77
2022-10-14T16:47:03.662Z,25.87
2022-10-14T16:49:07.212Z,25.07
2022-10-14T16:51:10.514Z,26.23
2022-10-14T16:53:24.219Z,26.10
2022-10-14T16:55:26.956Z,27.83
2022-10-14T16:57:36.775Z,26.60
2022-10-14T16:59:43.350Z,28.70
2022-10-14T17:01:46.097Z,27.87
2022-10-14T17:03:48.835Z,26.10
2022-10-14T17:05:57.758Z,26.50
2022-10-14T17:08:00.461Z,25.50
2022-10-14T17:10:06.107Z,25.00
2022-10-14T17:12:13.895Z,25.67
2022-10-14T17:14:19.082Z,24.70
2022-10-14T17:16:23.079Z,21.73
2022-10-14T17:18:26.118Z,23.60
2022-10-14T17:20:29.456Z,22.80
2022-10-14T17:22:32.193Z,25.50
2022-10-14T17:24:37.599Z,26.00
2022-10-14T17:26:40.363Z,25.10
2022-10-14T17:28:43.465Z,25.37
2022-10-14T17:30:49.203Z,24.60
2022-10-14T17:32:53.147Z,24.60
2022-10-14T17:34:56.101Z,26.03
2022-10-14T17:36:59.654Z,24.90
2022-10-14T17:39:02.451Z,24.50
2022-10-14T17:41:05.596Z,25.23
2022-10-14T17:43:09.572Z,26.60
2022-10-14T17:45:12.387Z,24.50
2022-10-14T17:47:17.397Z,23.83
2022-10-14T17:49:21.955Z,25.30
2022-10-14T17:51:25.543Z,26.30
2022-10-14T17:53:28.343Z,26.10
2022-10-14T17:55:31.023Z,25.83
2022-10-14T17:57:33.953Z,24.60
2022-10-14T17:59:36.585Z,24.97
2022-10-14T18:04:03.418Z,23.83
2022-10-14T18:06:11.458Z,25.10
2022-10-14T18:08:14.706Z,27.10
2022-10-14T18:10:17.717Z,25.10
2022-10-14T18:12:22.740Z,26.40
2022-10-14T18:14:25.549Z,26.07
2022-10-14T18:16:32.587Z,25.20
2022-10-14T18:18:36.164Z,27.53
2022-10-14T18:20:38.909Z,24.97
2022-10-14T18:24:49.866Z,24.83
2022-10-14T18:26:53.256Z,26.73
2022-10-14T18:28:56.710Z,25.60
2022-10-14T18:31:03.588Z,25.80
2022-10-14T18:33:06.270Z,26.20
2022-10-14T18:35:10.718Z,26.67
2022-10-14T18:37:13.407Z,24.50
2022-10-14T18:39:17.426Z,23.97
2022-10-14T18:41:20.666Z,24.03
2022-10-14T18:43:23.746Z,26.87
2022-10-14T18:45:26.597Z,25.10
2022-10-14T18:47:29.428Z,25.23
2022-10-14T18:49:34.550Z,27.50
2022-10-14T18:51:41.161Z,25.73
2022-10-14T18:53:45.094Z,23.30
2022-10-14T18:55:49.445Z,26.00
2022-10-14T18:57:52.267Z,25.50
2022-10-14T18:59:55.011Z,26.90
2022-10-14T19:01:58.148Z,23.47
2022-10-14T19:04:00.847Z,25.00
2022-10-14T19:06:03.550Z,24.97
2022-10-14T19:08:06.738Z,23.20
2022-10-14T19:10:10.242Z,23.47
2022-10-14T19:12:25.520Z,24.47
2022-10-14T19:14:28.713Z,23.03
2022-10-14T19:16:32.635Z,21.93
2022-10-14T19:18:35.360Z,23.63
2022-10-14T19:20:38.435Z,22.80
2022-10-14T19:22:44.922Z,23.70
2022-10-14T19:24:47.990Z,21.57
2022-10-14T19:26:50.978Z,21.23
2022-10-14T19:28:55.039Z,24.87
2022-10-14T19:30:57.679Z,22.20
2022-10-14T19:33:00.324Z,22.03
2022-10-14T19:35:02.994Z,21.37
2022-10-14T19:37:05.809Z,22.80
2022-10-14T19:39:09.124Z,23.73
2022-10-14T19:41:11.740Z,21.87
2022-10-14T19:43:14.417Z,23.33
2022-10-14T19:45:18.343Z,21.57
2022-10-14T19:47:21.315Z,21.07
2022-10-14T19:49:24.546Z,21.20
2022-10-14T19:51:27.321Z,21.67
2022-10-14T19:55:32.739Z,24.63
2022-10-14T19:57:35.448Z,20.80
2022-10-14T19:59:38.117Z,19.80
2022-10-14T20:01:42.380Z,22.40
2022-10-14T20:03:46.109Z,20.40
2022-10-14T20:05:49.918Z,24.30
2022-10-14T20:07:54.434Z,20.60
2022-10-14T20:10:00.495Z,19.90
2022-10-14T20:12:05.647Z,22.20
2022-10-14T20:14:08.326Z,20.70
2022-10-14T20:16:11.494Z,21.13
2022-10-14T20:18:18.039Z,20.60
2022-10-14T20:20:20.707Z,20.50
2022-10-14T20:22:23.745Z,21.00
2022-10-14T20:24:26.905Z,22.47
2022-10-14T20:26:29.871Z,21.03
2022-10-14T20:28:35.245Z,21.47
2022-10-14T20:30:39.497Z,22.03
2022-10-14T20:32:42.489Z,21.43
2022-10-14T20:34:46.898Z,21.83
2022-10-14T20:36:49.592Z,21.57
2022-10-14T20:38:52.313Z,20.67
2022-10-14T20:40:54.998Z,21.07
2022-10-14T20:42:57.715Z,20.97
2022-10-14T20:45:00.419Z,21.43
2022-10-14T20:47:03.516Z,21.03
2022-10-14T20:49:06.417Z,23.90
2022-10-14T20:51:11.473Z,21.63
2022-10-14T20:53:14.102Z,23.47
2022-10-14T20:55:17.193Z,21.30
2022-10-14T20:57:20.201Z,21.13
2022-10-14T20:59:23.161Z,21.13
2022-10-14T21:01:26.042Z,20.40
2022-10-14T21:03:29.027Z,21.17
2022-10-14T21:05:31.691Z,21.60
2022-10-14T21:07:35.643Z,20.80
2022-10-14T21:09:38.432Z,20.90
2022-10-14T21:11:45.485Z,21.57
2022-10-14T21:13:49.011Z,20.60
2022-10-14T21:15:51.706Z,18.87
2022-10-14T21:17:54.289Z,26.70
2022-10-14T21:19:57.138Z,20.87
2022-10-14T21:21:59.888Z,21.60
2022-10-14T21:24:04.205Z,23.70
2022-10-14T21:26:07.419Z,21.10
2022-10-14T21:28:10.173Z,20.60
2022-10-14T21:30:14.417Z,21.80
2022-10-14T21:32:17.078Z,19.93
2022-10-14T21:34:21.495Z,23.37
2022-10-14T21:36:24.457Z,21.27
2022-10-14T21:38:29.397Z,20.70
2022-10-14T21:40:34.267Z,21.20
2022-10-14T21:42:36.958Z,19.80
2022-10-14T21:44:39.628Z,21.93
2022-10-14T21:46:42.354Z,21.73
2022-10-14T21:48:45.593Z,22.10
2022-10-14T21:50:48.318Z,19.57
2022-10-14T21:52:51.001Z,19.60
2022-10-14T21:54:53.682Z,19.57
2022-10-14T21:56:57.800Z,21.60
2022-10-14T21:59:00.918Z,21.63
2022-10-14T22:01:04.821Z,22.50
2022-10-14T22:03:07.519Z,19.33
2022-10-14T22:05:10.318Z,19.43
2022-10-14T22:07:12.978Z,20.03
2022-10-14T22:09:15.898Z,21.93
2022-10-14T22:11:19.510Z,20.50
2022-10-14T22:13:23.690Z,20.50
2022-10-14T22:15:26.430Z,21.40
2022-10-14T22:17:29.361Z,19.67
2022-10-14T22:19:32.121Z,21.10
2022-10-14T22:21:35.638Z,20.47
2022-10-14T22:23:40.216Z,21.40
2022-10-14T22:25:43.226Z,22.07
2022-10-14T22:27:45.886Z,19.97
2022-10-14T22:29:49.785Z,21.40
2022-10-14T22:31:52.501Z,20.97
2022-10-14T22:33:55.250Z,20.30
2022-10-14T22:36:06.464Z,20.83
2022-10-14T22:38:09.170Z,20.80
2022-10-14T22:40:12.515Z,21.90
2022-10-14T22:42:15.376Z,21.57
2022-10-14T22:44:21.325Z,20.87
2022-10-14T22:46:26.673Z,20.73
2022-10-14T22:48:29.778Z,21.13
2022-10-14T22:50:32.421Z,22.60
2022-10-14T22:52:35.639Z,19.97
2022-10-14T22:54:38.273Z,20.40
2022-10-14T22:56:40.999Z,20.47
2022-10-14T22:58:43.977Z,21.13
2022-10-14T23:00:46.826Z,20.30
2022-10-14T23:02:51.062Z,20.30
2022-10-14T23:04:54.163Z,21.23
2022-10-14T23:07:01.858Z,20.17
2022-10-14T23:09:07.417Z,23.53
2022-10-14T23:11:11.861Z,20.17
2022-10-14T23:13:14.524Z,19.97
2022-10-14T23:15:17.263Z,20.33
2022-10-14T23:17:20.026Z,20.10
2022-10-14T23:19:24.473Z,22.57
2022-10-14T23:21:27.938Z,21.43
2022-10-14T23:23:30.600Z,20.60
2022-10-14T23:25:33.250Z,20.93
2022-10-14T23:27:36.478Z,21.37
2022-10-14T23:29:39.185Z,21.10
2022-10-14T23:31:41.941Z,20.43
2022-10-14T23:33:44.668Z,21.07
2022-10-14T23:35:48.962Z,20.73
2022-10-14T23:37:51.618Z,21.97
2022-10-14T23:39:54.298Z,21.60
2022-10-14T23:41:56.900Z,20.20
2022-10-14T23:43:59.962Z,20.80
2022-10-14T23:46:02.770Z,20.97
2022-10-14T23:48:05.830Z,22.20
2022-10-14T23:50:09.165Z,21.00
2022-10-14T23:52:13.472Z,20.70
2022-10-14T23:54:16.204Z,20.83
2022-10-14T23:56:19.090Z,21.23
2022-10-14T23:58:21.793Z,19.83
